sensor_id;sensor_type;location;lat;lon;timestamp;temperature;humidity
4578;DHT22;2301;47.354;8.528;2023-02-01T00:00:33;10.40;71.40
4578;DHT22;2301;47.354;8.528;2023-02-01T00:03:00;10.50;73.20
4578;DHT22;2301;47.354;8.528;2023-02-01T00:05:27;10.40;71.30
4578;DHT22;2301;47.354;8.528;2023-02-01T00:07:56;10.40;71.70
4578;DHT22;2301;47.354;8.528;2023-02-01T00:10:23;10.30;67.80
4578;DHT22;2301;47.354;8.528;2023-02-01T00:12:50;10.30;70.40
4578;DHT22;2301;47.354;8.528;2023-02-01T00:15:18;10.30;72.70
4578;DHT22;2301;47.354;8.528;2023-02-01T00:17:53;10.40;71.60
4578;DHT22;2301;47.354;8.528;2023-02-01T00:20:23;10.30;69.40
4578;DHT22;2301;47.354;8.528;2023-02-01T00:22:53;10.20;68.50
4578;DHT22;2301;47.354;8.528;2023-02-01T00:25:21;10.20;70.70
4578;DHT22;2301;47.354;8.528;2023-02-01T00:27:49;10.20;70.40
4578;DHT22;2301;47.354;8.528;2023-02-01T00:30:16;10.20;71.80
4578;DHT22;2301;47.354;8.528;2023-02-01T00:32:43;10.10;71.00
4578;DHT22;2301;47.354;8.528;2023-02-01T00:35:10;10.00;71.60
4578;DHT22;2301;47.354;8.528;2023-02-01T00:37:38;10.00;72.20
4578;DHT22;2301;47.354;8.528;2023-02-01T00:40:06;10.10;73.60
4578;DHT22;2301;47.354;8.528;2023-02-01T00:42:34;10.20;72.60
4578;DHT22;2301;47.354;8.528;2023-02-01T00:45:01;10.20;71.10
4578;DHT22;2301;47.354;8.528;2023-02-01T00:47:29;10.20;72.10
4578;DHT22;2301;47.354;8.528;2023-02-01T00:49:56;10.10;69.90
4578;DHT22;2301;47.354;8.528;2023-02-01T00:52:23;10.00;69.90
4578;DHT22;2301;47.354;8.528;2023-02-01T00:54:50;10.00;71.60
4578;DHT22;2301;47.354;8.528;2023-02-01T00:57:17;9.90;72.50
4578;DHT22;2301;47.354;8.528;2023-02-01T00:59:45;10.00;71.60
4578;DHT22;2301;47.354;8.528;2023-02-01T01:02:12;10.00;72.20
4578;DHT22;2301;47.354;8.528;2023-02-01T01:04:39;9.90;72.80
4578;DHT22;2301;47.354;8.528;2023-02-01T01:07:06;10.00;72.30
4578;DHT22;2301;47.354;8.528;2023-02-01T01:09:34;9.90;75.10
4578;DHT22;2301;47.354;8.528;2023-02-01T01:12:01;10.00;71.30
4578;DHT22;2301;47.354;8.528;2023-02-01T01:14:29;10.00;73.60
4578;DHT22;2301;47.354;8.528;2023-02-01T01:16:57;10.00;72.80
4578;DHT22;2301;47.354;8.528;2023-02-01T01:19:24;10.00;71.50
4578;DHT22;2301;47.354;8.528;2023-02-01T01:21:51;10.10;72.10
4578;DHT22;2301;47.354;8.528;2023-02-01T01:24:18;10.00;72.10
4578;DHT22;2301;47.354;8.528;2023-02-01T01:26:45;10.00;71.60
4578;DHT22;2301;47.354;8.528;2023-02-01T01:29:12;10.00;72.20
4578;DHT22;2301;47.354;8.528;2023-02-01T01:31:39;10.00;72.60
4578;DHT22;2301;47.354;8.528;2023-02-01T01:34:08;10.00;72.00
4578;DHT22;2301;47.354;8.528;2023-02-01T01:36:35;9.90;72.30
4578;DHT22;2301;47.354;8.528;2023-02-01T01:39:02;10.00;72.80
4578;DHT22;2301;47.354;8.528;2023-02-01T01:41:31;10.00;72.90
4578;DHT22;2301;47.354;8.528;2023-02-01T01:44:02;10.00;72.80
4578;DHT22;2301;47.354;8.528;2023-02-01T01:46:31;10.00;70.80
4578;DHT22;2301;47.354;8.528;2023-02-01T01:49:03;9.90;70.70
4578;DHT22;2301;47.354;8.528;2023-02-01T01:51:36;10.00;71.90
4578;DHT22;2301;47.354;8.528;2023-02-01T01:54:08;10.00;72.20
4578;DHT22;2301;47.354;8.528;2023-02-01T01:56:38;10.00;72.30
4578;DHT22;2301;47.354;8.528;2023-02-01T01:59:07;10.00;72.20
4578;DHT22;2301;47.354;8.528;2023-02-01T02:01:35;9.90;72.40
4578;DHT22;2301;47.354;8.528;2023-02-01T02:04:02;9.90;72.80
4578;DHT22;2301;47.354;8.528;2023-02-01T02:06:39;10.00;71.80
4578;DHT22;2301;47.354;8.528;2023-02-01T02:09:07;9.90;73.10
4578;DHT22;2301;47.354;8.528;2023-02-01T02:11:34;9.90;71.40
4578;DHT22;2301;47.354;8.528;2023-02-01T02:14:03;9.90;72.00
4578;DHT22;2301;47.354;8.528;2023-02-01T02:22:52;9.90;72.80
4578;DHT22;2301;47.354;8.528;2023-02-01T02:25:42;9.90;73.20
4578;DHT22;2301;47.354;8.528;2023-02-01T02:31:34;10.00;72.00
4578;DHT22;2301;47.354;8.528;2023-02-01T02:34:16;9.90;72.50
4578;DHT22;2301;47.354;8.528;2023-02-01T02:36:55;9.90;72.60
4578;DHT22;2301;47.354;8.528;2023-02-01T02:39:34;10.00;71.40
4578;DHT22;2301;47.354;8.528;2023-02-01T02:42:10;10.00;71.10
4578;DHT22;2301;47.354;8.528;2023-02-01T02:45:00;10.00;70.90
4578;DHT22;2301;47.354;8.528;2023-02-01T02:47:51;9.90;71.90
4578;DHT22;2301;47.354;8.528;2023-02-01T02:50:26;9.90;71.80
4578;DHT22;2301;47.354;8.528;2023-02-01T02:53:15;9.90;71.30
4578;DHT22;2301;47.354;8.528;2023-02-01T02:56:02;9.80;71.10
4578;DHT22;2301;47.354;8.528;2023-02-01T02:58:48;9.80;71.40
4578;DHT22;2301;47.354;8.528;2023-02-01T03:01:33;9.80;72.10
4578;DHT22;2301;47.354;8.528;2023-02-01T03:04:17;9.80;71.70
4578;DHT22;2301;47.354;8.528;2023-02-01T03:06:47;9.80;70.70
4578;DHT22;2301;47.354;8.528;2023-02-01T03:09:18;9.70;70.30
4578;DHT22;2301;47.354;8.528;2023-02-01T03:11:49;9.70;71.10
4578;DHT22;2301;47.354;8.528;2023-02-01T03:14:38;9.60;71.30
4578;DHT22;2301;47.354;8.528;2023-02-01T03:17:11;9.70;71.50
4578;DHT22;2301;47.354;8.528;2023-02-01T03:19:42;9.60;71.20
4578;DHT22;2301;47.354;8.528;2023-02-01T03:22:17;9.60;71.50
4578;DHT22;2301;47.354;8.528;2023-02-01T03:24:49;9.60;70.80
4578;DHT22;2301;47.354;8.528;2023-02-01T03:27:20;9.60;71.60
4578;DHT22;2301;47.354;8.528;2023-02-01T03:29:52;9.50;71.50
4578;DHT22;2301;47.354;8.528;2023-02-01T03:32:21;9.50;70.80
4578;DHT22;2301;47.354;8.528;2023-02-01T03:34:50;9.60;71.60
4578;DHT22;2301;47.354;8.528;2023-02-01T03:37:23;9.60;71.70
4578;DHT22;2301;47.354;8.528;2023-02-01T03:39:59;9.50;68.20
4578;DHT22;2301;47.354;8.528;2023-02-01T03:42:30;9.40;70.90
4578;DHT22;2301;47.354;8.528;2023-02-01T03:45:03;9.50;71.80
4578;DHT22;2301;47.354;8.528;2023-02-01T03:47:35;9.60;71.70
4578;DHT22;2301;47.354;8.528;2023-02-01T03:50:06;9.60;72.70
4578;DHT22;2301;47.354;8.528;2023-02-01T03:52:39;9.60;72.40
4578;DHT22;2301;47.354;8.528;2023-02-01T03:55:08;9.60;70.80
4578;DHT22;2301;47.354;8.528;2023-02-01T03:57:39;9.60;71.70
4578;DHT22;2301;47.354;8.528;2023-02-01T04:00:14;9.50;69.50
4578;DHT22;2301;47.354;8.528;2023-02-01T04:02:42;9.60;69.70
4578;DHT22;2301;47.354;8.528;2023-02-01T04:05:09;9.50;70.30
4578;DHT22;2301;47.354;8.528;2023-02-01T04:07:38;9.50;70.80
4578;DHT22;2301;47.354;8.528;2023-02-01T04:10:06;9.50;71.10
4578;DHT22;2301;47.354;8.528;2023-02-01T04:12:33;9.50;70.80
4578;DHT22;2301;47.354;8.528;2023-02-01T04:15:00;9.50;70.70
4578;DHT22;2301;47.354;8.528;2023-02-01T04:17:27;9.40;69.80
4578;DHT22;2301;47.354;8.528;2023-02-01T04:19:53;9.50;70.40
4578;DHT22;2301;47.354;8.528;2023-02-01T04:22:21;9.40;69.70
4578;DHT22;2301;47.354;8.528;2023-02-01T04:24:49;9.40;70.70
4578;DHT22;2301;47.354;8.528;2023-02-01T04:27:16;9.40;70.50
4578;DHT22;2301;47.354;8.528;2023-02-01T04:29:44;9.30;68.50
4578;DHT22;2301;47.354;8.528;2023-02-01T04:32:11;9.40;70.20
4578;DHT22;2301;47.354;8.528;2023-02-01T04:34:38;9.20;67.00
4578;DHT22;2301;47.354;8.528;2023-02-01T04:37:05;9.20;69.60
4578;DHT22;2301;47.354;8.528;2023-02-01T04:39:32;9.30;71.10
4578;DHT22;2301;47.354;8.528;2023-02-01T04:42:01;9.40;70.50
4578;DHT22;2301;47.354;8.528;2023-02-01T04:44:28;9.50;70.80
4578;DHT22;2301;47.354;8.528;2023-02-01T04:46:55;9.50;71.40
4578;DHT22;2301;47.354;8.528;2023-02-01T04:49:22;9.60;71.10
4578;DHT22;2301;47.354;8.528;2023-02-01T04:51:50;9.60;70.00
4578;DHT22;2301;47.354;8.528;2023-02-01T04:54:18;9.70;69.90
4578;DHT22;2301;47.354;8.528;2023-02-01T04:56:44;9.70;69.80
4578;DHT22;2301;47.354;8.528;2023-02-01T04:59:13;9.70;69.40
4578;DHT22;2301;47.354;8.528;2023-02-01T05:01:40;9.80;70.10
4578;DHT22;2301;47.354;8.528;2023-02-01T05:04:07;9.70;69.40
4578;DHT22;2301;47.354;8.528;2023-02-01T05:06:34;9.80;69.70
4578;DHT22;2301;47.354;8.528;2023-02-01T05:09:01;9.80;69.70
4578;DHT22;2301;47.354;8.528;2023-02-01T05:11:28;9.90;69.60
4578;DHT22;2301;47.354;8.528;2023-02-01T05:14:14;9.90;69.70
4578;DHT22;2301;47.354;8.528;2023-02-01T05:16:41;10.00;68.60
4578;DHT22;2301;47.354;8.528;2023-02-01T05:19:08;10.00;68.10
4578;DHT22;2301;47.354;8.528;2023-02-01T05:21:35;10.00;68.00
4578;DHT22;2301;47.354;8.528;2023-02-01T05:24:03;10.00;68.30
4578;DHT22;2301;47.354;8.528;2023-02-01T05:26:45;10.00;67.60
4578;DHT22;2301;47.354;8.528;2023-02-01T05:29:15;9.80;62.80
4578;DHT22;2301;47.354;8.528;2023-02-01T05:31:44;9.50;59.90
4578;DHT22;2301;47.354;8.528;2023-02-01T05:34:11;9.30;60.40
4578;DHT22;2301;47.354;8.528;2023-02-01T05:36:38;8.90;58.90
4578;DHT22;2301;47.354;8.528;2023-02-01T05:39:05;8.70;59.40
4578;DHT22;2301;47.354;8.528;2023-02-01T05:41:33;8.60;59.70
4578;DHT22;2301;47.354;8.528;2023-02-01T05:44:00;8.50;59.70
4578;DHT22;2301;47.354;8.528;2023-02-01T05:46:28;8.30;59.70
4578;DHT22;2301;47.354;8.528;2023-02-01T05:48:55;8.10;59.50
4578;DHT22;2301;47.354;8.528;2023-02-01T05:51:22;7.80;59.60
4578;DHT22;2301;47.354;8.528;2023-02-01T05:53:49;7.70;60.20
4578;DHT22;2301;47.354;8.528;2023-02-01T05:56:16;7.60;60.50
4578;DHT22;2301;47.354;8.528;2023-02-01T05:58:43;7.50;60.90
4578;DHT22;2301;47.354;8.528;2023-02-01T06:01:10;7.40;61.10
4578;DHT22;2301;47.354;8.528;2023-02-01T06:03:39;7.30;61.10
4578;DHT22;2301;47.354;8.528;2023-02-01T06:06:06;7.20;61.30
4578;DHT22;2301;47.354;8.528;2023-02-01T06:08:33;7.20;61.80
4578;DHT22;2301;47.354;8.528;2023-02-01T06:11:01;7.10;61.90
4578;DHT22;2301;47.354;8.528;2023-02-01T06:13:29;7.10;62.20
4578;DHT22;2301;47.354;8.528;2023-02-01T06:15:56;7.10;62.40
4578;DHT22;2301;47.354;8.528;2023-02-01T06:18:24;7.00;62.30
4578;DHT22;2301;47.354;8.528;2023-02-01T06:20:56;6.90;62.60
4578;DHT22;2301;47.354;8.528;2023-02-01T06:23:27;6.90;62.60
4578;DHT22;2301;47.354;8.528;2023-02-01T06:25:59;6.90;62.80
4578;DHT22;2301;47.354;8.528;2023-02-01T06:28:26;6.80;63.10
4578;DHT22;2301;47.354;8.528;2023-02-01T06:30:56;6.70;63.40
4578;DHT22;2301;47.354;8.528;2023-02-01T06:33:24;6.70;63.40
4578;DHT22;2301;47.354;8.528;2023-02-01T06:36:02;6.60;63.60
4578;DHT22;2301;47.354;8.528;2023-02-01T06:38:30;6.60;63.90
4578;DHT22;2301;47.354;8.528;2023-02-01T06:40:57;6.40;64.20
4578;DHT22;2301;47.354;8.528;2023-02-01T06:43:27;6.30;64.60
4578;DHT22;2301;47.354;8.528;2023-02-01T06:45:59;6.30;64.90
4578;DHT22;2301;47.354;8.528;2023-02-01T06:48:27;6.20;65.30
4578;DHT22;2301;47.354;8.528;2023-02-01T06:50:54;6.10;65.60
4578;DHT22;2301;47.354;8.528;2023-02-01T06:53:23;6.20;65.80
4578;DHT22;2301;47.354;8.528;2023-02-01T06:55:56;6.10;65.90
4578;DHT22;2301;47.354;8.528;2023-02-01T06:58:33;6.10;65.90
4578;DHT22;2301;47.354;8.528;2023-02-01T07:01:13;6.10;66.10
4578;DHT22;2301;47.354;8.528;2023-02-01T07:03:47;6.10;66.50
4578;DHT22;2301;47.354;8.528;2023-02-01T07:06:14;6.00;66.40
4578;DHT22;2301;47.354;8.528;2023-02-01T07:08:46;6.10;66.70
4578;DHT22;2301;47.354;8.528;2023-02-01T07:11:14;6.00;66.40
4578;DHT22;2301;47.354;8.528;2023-02-01T07:13:41;6.10;66.30
4578;DHT22;2301;47.354;8.528;2023-02-01T07:16:13;6.10;66.30
4578;DHT22;2301;47.354;8.528;2023-02-01T07:18:40;6.20;66.40
4578;DHT22;2301;47.354;8.528;2023-02-01T07:21:09;6.70;79.70
4578;DHT22;2301;47.354;8.528;2023-02-01T07:23:37;7.20;78.90
4578;DHT22;2301;47.354;8.528;2023-02-01T07:26:07;7.30;74.20
4578;DHT22;2301;47.354;8.528;2023-02-01T07:28:35;7.30;70.20
4578;DHT22;2301;47.354;8.528;2023-02-01T07:31:03;7.30;69.10
4578;DHT22;2301;47.354;8.528;2023-02-01T07:33:31;7.20;68.20
4578;DHT22;2301;47.354;8.528;2023-02-01T07:36:00;7.10;68.00
4578;DHT22;2301;47.354;8.528;2023-02-01T07:38:27;7.00;68.00
4578;DHT22;2301;47.354;8.528;2023-02-01T07:40:57;7.00;68.10
4578;DHT22;2301;47.354;8.528;2023-02-01T07:43:26;7.00;68.30
4578;DHT22;2301;47.354;8.528;2023-02-01T07:45:54;6.90;68.30
4578;DHT22;2301;47.354;8.528;2023-02-01T07:48:22;6.80;68.70
4578;DHT22;2301;47.354;8.528;2023-02-01T07:50:57;6.80;69.70
4578;DHT22;2301;47.354;8.528;2023-02-01T07:53:32;6.60;70.00
4578;DHT22;2301;47.354;8.528;2023-02-01T07:56:00;6.60;70.70
4578;DHT22;2301;47.354;8.528;2023-02-01T07:58:31;6.60;70.80
4578;DHT22;2301;47.354;8.528;2023-02-01T08:00:58;6.60;71.30
4578;DHT22;2301;47.354;8.528;2023-02-01T08:03:42;6.60;71.20
4578;DHT22;2301;47.354;8.528;2023-02-01T08:06:09;6.60;71.50
4578;DHT22;2301;47.354;8.528;2023-02-01T08:08:36;6.60;71.70
4578;DHT22;2301;47.354;8.528;2023-02-01T08:11:05;6.50;71.90
4578;DHT22;2301;47.354;8.528;2023-02-01T08:13:35;6.60;72.20
4578;DHT22;2301;47.354;8.528;2023-02-01T08:16:03;6.50;72.30
4578;DHT22;2301;47.354;8.528;2023-02-01T08:18:33;6.50;72.90
4578;DHT22;2301;47.354;8.528;2023-02-01T08:21:03;6.40;72.60
4578;DHT22;2301;47.354;8.528;2023-02-01T08:23:30;6.40;72.30
4578;DHT22;2301;47.354;8.528;2023-02-01T08:26:07;6.40;72.30
4578;DHT22;2301;47.354;8.528;2023-02-01T08:28:37;6.50;72.60
4578;DHT22;2301;47.354;8.528;2023-02-01T08:31:05;6.60;73.00
4578;DHT22;2301;47.354;8.528;2023-02-01T08:33:33;6.60;72.60
4578;DHT22;2301;47.354;8.528;2023-02-01T08:36:01;6.60;72.40
4578;DHT22;2301;47.354;8.528;2023-02-01T08:38:28;6.60;72.00
4578;DHT22;2301;47.354;8.528;2023-02-01T08:40:55;6.60;71.50
4578;DHT22;2301;47.354;8.528;2023-02-01T08:43:22;6.60;71.10
4578;DHT22;2301;47.354;8.528;2023-02-01T08:45:54;6.60;70.70
4578;DHT22;2301;47.354;8.528;2023-02-01T08:48:21;6.60;70.80
4578;DHT22;2301;47.354;8.528;2023-02-01T08:50:48;6.70;70.80
4578;DHT22;2301;47.354;8.528;2023-02-01T08:53:15;6.70;70.50
4578;DHT22;2301;47.354;8.528;2023-02-01T08:55:42;6.70;70.40
4578;DHT22;2301;47.354;8.528;2023-02-01T08:58:09;6.80;70.50
4578;DHT22;2301;47.354;8.528;2023-02-01T09:00:36;6.70;70.00
4578;DHT22;2301;47.354;8.528;2023-02-01T09:03:04;6.80;70.20
4578;DHT22;2301;47.354;8.528;2023-02-01T09:05:31;6.80;70.00
4578;DHT22;2301;47.354;8.528;2023-02-01T09:07:59;6.80;70.00
4578;DHT22;2301;47.354;8.528;2023-02-01T09:10:26;6.80;69.70
4578;DHT22;2301;47.354;8.528;2023-02-01T09:12:53;6.90;69.80
4578;DHT22;2301;47.354;8.528;2023-02-01T09:15:20;6.80;69.60
4578;DHT22;2301;47.354;8.528;2023-02-01T09:17:47;6.80;69.30
4578;DHT22;2301;47.354;8.528;2023-02-01T09:20:16;6.90;69.50
4578;DHT22;2301;47.354;8.528;2023-02-01T09:22:44;6.80;68.90
4578;DHT22;2301;47.354;8.528;2023-02-01T09:25:11;6.80;69.00
4578;DHT22;2301;47.354;8.528;2023-02-01T09:27:38;6.90;69.50
4578;DHT22;2301;47.354;8.528;2023-02-01T09:30:06;6.90;69.60
4578;DHT22;2301;47.354;8.528;2023-02-01T09:32:33;6.80;69.20
4578;DHT22;2301;47.354;8.528;2023-02-01T09:35:00;6.80;69.00
4578;DHT22;2301;47.354;8.528;2023-02-01T09:37:28;6.70;68.50
4578;DHT22;2301;47.354;8.528;2023-02-01T09:39:56;6.80;69.20
4578;DHT22;2301;47.354;8.528;2023-02-01T09:42:41;6.80;69.50
4578;DHT22;2301;47.354;8.528;2023-02-01T09:45:20;6.80;69.60
4578;DHT22;2301;47.354;8.528;2023-02-01T09:47:51;6.70;69.70
4578;DHT22;2301;47.354;8.528;2023-02-01T09:50:22;6.80;69.90
4578;DHT22;2301;47.354;8.528;2023-02-01T09:52:57;6.90;70.20
4578;DHT22;2301;47.354;8.528;2023-02-01T09:55:32;6.90;69.70
4578;DHT22;2301;47.354;8.528;2023-02-01T09:58:05;7.00;70.00
4578;DHT22;2301;47.354;8.528;2023-02-01T10:00:35;7.00;69.80
4578;DHT22;2301;47.354;8.528;2023-02-01T10:03:03;7.00;69.40
4578;DHT22;2301;47.354;8.528;2023-02-01T10:06:01;7.10;69.60
4578;DHT22;2301;47.354;8.528;2023-02-01T10:09:02;7.20;69.80
4578;DHT22;2301;47.354;8.528;2023-02-01T10:11:42;7.20;69.50
4578;DHT22;2301;47.354;8.528;2023-02-01T10:14:30;7.20;69.20
4578;DHT22;2301;47.354;8.528;2023-02-01T10:17:07;7.20;69.20
4578;DHT22;2301;47.354;8.528;2023-02-01T10:19:46;7.30;69.30
4578;DHT22;2301;47.354;8.528;2023-02-01T10:22:27;7.30;68.80
4578;DHT22;2301;47.354;8.528;2023-02-01T10:25:05;7.30;68.80
4578;DHT22;2301;47.354;8.528;2023-02-01T10:27:39;7.30;69.20
4578;DHT22;2301;47.354;8.528;2023-02-01T10:30:16;7.40;70.40
4578;DHT22;2301;47.354;8.528;2023-02-01T10:32:44;7.50;69.50
4578;DHT22;2301;47.354;8.528;2023-02-01T10:35:15;7.70;69.40
4578;DHT22;2301;47.354;8.528;2023-02-01T10:37:43;7.70;70.30
4578;DHT22;2301;47.354;8.528;2023-02-01T10:40:24;7.70;69.20
4578;DHT22;2301;47.354;8.528;2023-02-01T10:42:53;7.80;68.60
4578;DHT22;2301;47.354;8.528;2023-02-01T10:45:22;7.80;68.90
4578;DHT22;2301;47.354;8.528;2023-02-01T10:47:51;8.10;68.40
4578;DHT22;2301;47.354;8.528;2023-02-01T10:50:34;8.00;67.30
4578;DHT22;2301;47.354;8.528;2023-02-01T10:53:09;8.20;67.70
4578;DHT22;2301;47.354;8.528;2023-02-01T10:55:41;8.30;67.60
4578;DHT22;2301;47.354;8.528;2023-02-01T10:58:16;8.50;67.80
4578;DHT22;2301;47.354;8.528;2023-02-01T11:00:45;8.50;67.50
4578;DHT22;2301;47.354;8.528;2023-02-01T11:03:34;8.50;67.30
4578;DHT22;2301;47.354;8.528;2023-02-01T11:06:09;8.40;67.30
4578;DHT22;2301;47.354;8.528;2023-02-01T11:08:43;8.40;67.40
4578;DHT22;2301;47.354;8.528;2023-02-01T11:11:13;8.40;67.60
4578;DHT22;2301;47.354;8.528;2023-02-01T11:13:41;8.40;67.40
4578;DHT22;2301;47.354;8.528;2023-02-01T11:16:12;8.50;67.50
4578;DHT22;2301;47.354;8.528;2023-02-01T11:18:41;8.80;67.60
4578;DHT22;2301;47.354;8.528;2023-02-01T11:21:09;9.20;68.30
4578;DHT22;2301;47.354;8.528;2023-02-01T11:23:41;9.60;68.10
4578;DHT22;2301;47.354;8.528;2023-02-01T11:26:13;9.80;66.80
4578;DHT22;2301;47.354;8.528;2023-02-01T11:28:51;10.20;65.00
4578;DHT22;2301;47.354;8.528;2023-02-01T11:31:20;10.50;64.70
4578;DHT22;2301;47.354;8.528;2023-02-01T11:33:51;10.80;64.50
4578;DHT22;2301;47.354;8.528;2023-02-01T11:36:22;11.00;63.30
4578;DHT22;2301;47.354;8.528;2023-02-01T11:38:54;11.30;62.30
4578;DHT22;2301;47.354;8.528;2023-02-01T11:41:24;11.40;61.50
4578;DHT22;2301;47.354;8.528;2023-02-01T11:43:54;11.50;60.30
4578;DHT22;2301;47.354;8.528;2023-02-01T11:46:24;11.60;60.10
4578;DHT22;2301;47.354;8.528;2023-02-01T11:48:56;11.70;59.20
4578;DHT22;2301;47.354;8.528;2023-02-01T11:51:42;11.90;63.50
4578;DHT22;2301;47.354;8.528;2023-02-01T11:54:23;12.00;59.40
4578;DHT22;2301;47.354;8.528;2023-02-01T11:57:04;12.10;59.20
4578;DHT22;2301;47.354;8.528;2023-02-01T11:59:49;12.30;58.90
4578;DHT22;2301;47.354;8.528;2023-02-01T12:02:45;12.40;57.60
4578;DHT22;2301;47.354;8.528;2023-02-01T12:05:28;12.50;57.30
4578;DHT22;2301;47.354;8.528;2023-02-01T12:08:21;12.50;56.00
4578;DHT22;2301;47.354;8.528;2023-02-01T12:11:02;12.50;56.50
4578;DHT22;2301;47.354;8.528;2023-02-01T12:13:45;12.50;56.40
4578;DHT22;2301;47.354;8.528;2023-02-01T12:16:22;12.60;56.30
4578;DHT22;2301;47.354;8.528;2023-02-01T12:22:00;12.60;55.10
4578;DHT22;2301;47.354;8.528;2023-02-01T12:24:44;12.60;54.70
4578;DHT22;2301;47.354;8.528;2023-02-01T12:27:41;12.30;54.10
4578;DHT22;2301;47.354;8.528;2023-02-01T12:30:35;12.30;55.00
4578;DHT22;2301;47.354;8.528;2023-02-01T12:33:17;12.30;54.80
4578;DHT22;2301;47.354;8.528;2023-02-01T12:36:09;12.30;54.40
4578;DHT22;2301;47.354;8.528;2023-02-01T12:38:46;12.40;54.80
4578;DHT22;2301;47.354;8.528;2023-02-01T12:41:41;12.50;54.70
4578;DHT22;2301;47.354;8.528;2023-02-01T12:44:16;12.50;54.30
4578;DHT22;2301;47.354;8.528;2023-02-01T12:46:48;12.50;54.30
4578;DHT22;2301;47.354;8.528;2023-02-01T12:49:21;12.50;54.10
4578;DHT22;2301;47.354;8.528;2023-02-01T12:51:55;12.50;53.60
4578;DHT22;2301;47.354;8.528;2023-02-01T12:54:30;12.40;53.40
4578;DHT22;2301;47.354;8.528;2023-02-01T12:57:00;12.30;53.40
4578;DHT22;2301;47.354;8.528;2023-02-01T12:59:34;12.10;53.40
4578;DHT22;2301;47.354;8.528;2023-02-01T13:02:15;12.10;54.20
4578;DHT22;2301;47.354;8.528;2023-02-01T13:04:53;12.10;53.90
4578;DHT22;2301;47.354;8.528;2023-02-01T13:07:26;12.00;53.30
4578;DHT22;2301;47.354;8.528;2023-02-01T13:09:59;12.00;53.70
4578;DHT22;2301;47.354;8.528;2023-02-01T13:12:32;12.00;54.00
4578;DHT22;2301;47.354;8.528;2023-02-01T13:15:03;11.80;53.80
4578;DHT22;2301;47.354;8.528;2023-02-01T13:17:33;11.80;54.20
4578;DHT22;2301;47.354;8.528;2023-02-01T13:20:06;11.70;54.20
4578;DHT22;2301;47.354;8.528;2023-02-01T13:22:39;11.60;54.30
4578;DHT22;2301;47.354;8.528;2023-02-01T13:25:13;11.50;54.20
4578;DHT22;2301;47.354;8.528;2023-02-01T13:27:40;11.50;54.40
4578;DHT22;2301;47.354;8.528;2023-02-01T13:30:14;11.40;53.50
4578;DHT22;2301;47.354;8.528;2023-02-01T13:36:16;11.10;53.50
4578;DHT22;2301;47.354;8.528;2023-02-01T13:41:57;10.70;54.40
4578;DHT22;2301;47.354;8.528;2023-02-01T13:44:29;10.70;54.80
4578;DHT22;2301;47.354;8.528;2023-02-01T13:47:02;10.60;55.40
4578;DHT22;2301;47.354;8.528;2023-02-01T13:49:33;10.60;55.40
4578;DHT22;2301;47.354;8.528;2023-02-01T13:52:05;10.70;55.30
4578;DHT22;2301;47.354;8.528;2023-02-01T13:54:34;10.70;55.20
4578;DHT22;2301;47.354;8.528;2023-02-01T13:57:04;10.80;55.00
4578;DHT22;2301;47.354;8.528;2023-02-01T13:59:50;10.70;54.20
4578;DHT22;2301;47.354;8.528;2023-02-01T14:02:47;10.60;54.80
4578;DHT22;2301;47.354;8.528;2023-02-01T14:06:01;10.40;55.00
4578;DHT22;2301;47.354;8.528;2023-02-01T14:11:38;10.30;55.50
4578;DHT22;2301;47.354;8.528;2023-02-01T14:17:36;10.10;55.90
4578;DHT22;2301;47.354;8.528;2023-02-01T14:26:14;9.90;57.30
4578;DHT22;2301;47.354;8.528;2023-02-01T14:29:13;9.90;57.80
4578;DHT22;2301;47.354;8.528;2023-02-01T14:31:51;9.90;57.80
4578;DHT22;2301;47.354;8.528;2023-02-01T14:34:39;9.80;57.60
4578;DHT22;2301;47.354;8.528;2023-02-01T14:37:24;9.80;57.80
4578;DHT22;2301;47.354;8.528;2023-02-01T14:39:56;9.80;57.40
4578;DHT22;2301;47.354;8.528;2023-02-01T14:42:37;9.70;58.00
4578;DHT22;2301;47.354;8.528;2023-02-01T14:45:46;9.70;58.90
4578;DHT22;2301;47.354;8.528;2023-02-01T14:48:41;9.60;57.90
4578;DHT22;2301;47.354;8.528;2023-02-01T14:51:12;9.60;57.90
4578;DHT22;2301;47.354;8.528;2023-02-01T14:53:41;9.60;58.00
4578;DHT22;2301;47.354;8.528;2023-02-01T14:56:13;9.60;58.10
4578;DHT22;2301;47.354;8.528;2023-02-01T14:58:47;9.60;58.40
4578;DHT22;2301;47.354;8.528;2023-02-01T15:01:21;9.70;58.90
4578;DHT22;2301;47.354;8.528;2023-02-01T15:04:02;9.60;58.10
4578;DHT22;2301;47.354;8.528;2023-02-01T15:06:33;9.60;58.30
4578;DHT22;2301;47.354;8.528;2023-02-01T15:09:07;9.50;57.80
4578;DHT22;2301;47.354;8.528;2023-02-01T15:11:55;9.50;57.40
4578;DHT22;2301;47.354;8.528;2023-02-01T15:14:24;9.40;57.60
4578;DHT22;2301;47.354;8.528;2023-02-01T15:16:52;9.30;57.00
4578;DHT22;2301;47.354;8.528;2023-02-01T15:19:22;9.30;57.20
4578;DHT22;2301;47.354;8.528;2023-02-01T15:21:51;9.30;56.60
4578;DHT22;2301;47.354;8.528;2023-02-01T15:24:21;9.20;56.00
4578;DHT22;2301;47.354;8.528;2023-02-01T15:26:49;9.20;55.90
4578;DHT22;2301;47.354;8.528;2023-02-01T15:29:17;9.20;56.00
4578;DHT22;2301;47.354;8.528;2023-02-01T15:31:47;9.30;56.00
4578;DHT22;2301;47.354;8.528;2023-02-01T15:34:15;9.30;55.90
4578;DHT22;2301;47.354;8.528;2023-02-01T15:36:42;9.30;55.90
4578;DHT22;2301;47.354;8.528;2023-02-01T15:39:16;9.30;56.00
4578;DHT22;2301;47.354;8.528;2023-02-01T15:41:48;9.30;55.40
4578;DHT22;2301;47.354;8.528;2023-02-01T15:44:20;9.30;55.40
4578;DHT22;2301;47.354;8.528;2023-02-01T15:46:49;9.30;55.00
4578;DHT22;2301;47.354;8.528;2023-02-01T15:49:24;9.30;54.90
4578;DHT22;2301;47.354;8.528;2023-02-01T15:51:53;9.20;54.40
4578;DHT22;2301;47.354;8.528;2023-02-01T15:54:24;9.20;54.60
4578;DHT22;2301;47.354;8.528;2023-02-01T15:56:54;9.10;54.70
4578;DHT22;2301;47.354;8.528;2023-02-01T15:59:24;9.00;54.70
4578;DHT22;2301;47.354;8.528;2023-02-01T16:01:53;9.00;54.70
4578;DHT22;2301;47.354;8.528;2023-02-01T16:04:22;9.00;55.20
4578;DHT22;2301;47.354;8.528;2023-02-01T16:06:51;9.00;55.30
4578;DHT22;2301;47.354;8.528;2023-02-01T16:09:20;8.90;54.80
4578;DHT22;2301;47.354;8.528;2023-02-01T16:11:54;8.90;54.90
4578;DHT22;2301;47.354;8.528;2023-02-01T16:14:21;8.90;54.80
4578;DHT22;2301;47.354;8.528;2023-02-01T16:16:49;8.80;54.90
4578;DHT22;2301;47.354;8.528;2023-02-01T16:19:17;8.80;55.20
4578;DHT22;2301;47.354;8.528;2023-02-01T16:21:44;8.80;55.30
4578;DHT22;2301;47.354;8.528;2023-02-01T16:24:12;8.70;54.90
4578;DHT22;2301;47.354;8.528;2023-02-01T16:26:39;8.70;55.20
4578;DHT22;2301;47.354;8.528;2023-02-01T16:29:06;8.60;55.30
4578;DHT22;2301;47.354;8.528;2023-02-01T16:31:35;8.60;55.30
4578;DHT22;2301;47.354;8.528;2023-02-01T16:34:04;8.60;55.30
4578;DHT22;2301;47.354;8.528;2023-02-01T16:36:36;8.50;54.80
4578;DHT22;2301;47.354;8.528;2023-02-01T16:39:04;8.50;55.10
4578;DHT22;2301;47.354;8.528;2023-02-01T16:41:32;8.50;55.60
4578;DHT22;2301;47.354;8.528;2023-02-01T16:43:59;8.50;55.50
4578;DHT22;2301;47.354;8.528;2023-02-01T16:46:28;8.50;55.50
4578;DHT22;2301;47.354;8.528;2023-02-01T16:49:00;8.50;55.60
4578;DHT22;2301;47.354;8.528;2023-02-01T16:51:29;8.40;55.70
4578;DHT22;2301;47.354;8.528;2023-02-01T16:53:59;8.40;55.70
4578;DHT22;2301;47.354;8.528;2023-02-01T16:56:32;8.40;55.90
4578;DHT22;2301;47.354;8.528;2023-02-01T16:59:02;8.40;55.80
4578;DHT22;2301;47.354;8.528;2023-02-01T17:01:32;8.50;56.10
4578;DHT22;2301;47.354;8.528;2023-02-01T17:03:59;8.40;55.60
4578;DHT22;2301;47.354;8.528;2023-02-01T17:06:27;8.30;55.60
4578;DHT22;2301;47.354;8.528;2023-02-01T17:08:56;8.30;55.90
4578;DHT22;2301;47.354;8.528;2023-02-01T17:11:25;8.30;56.20
4578;DHT22;2301;47.354;8.528;2023-02-01T17:13:53;8.20;56.10